sensor_id;sensor_type;location;lat;lon;timestamp;P1;durP1;ratioP1;P2;durP2;ratioP2
4375;SDS011;2202;50.866;12.750;2023-04-01T00:00:06;4.97;;;1.90;;
4375;SDS011;2202;50.866;12.750;2023-04-01T00:02:34;6.40;;;2.33;;
4375;SDS011;2202;50.866;12.750;2023-04-01T00:05:01;4.43;;;1.30;;
4375;SDS011;2202;50.866;12.750;2023-04-01T00:07:28;4.40;;;2.03;;
4375;SDS011;2202;50.866;12.750;2023-04-01T00:09:55;8.37;;;2.20;;
4375;SDS011;2202;50.866;12.750;2023-04-01T00:12:22;4.80;;;1.50;;
4375;SDS011;2202;50.866;12.750;2023-04-01T00:14:50;6.43;;;1.50;;
4375;SDS011;2202;50.866;12.750;2023-04-01T00:17:18;4.00;;;2.07;;
4375;SDS011;2202;50.866;12.750;2023-04-01T00:19:46;5.10;;;2.13;;
4375;SDS011;2202;50.866;12.750;2023-04-01T00:22:13;4.97;;;1.90;;
4375;SDS011;2202;50.866;12.750;2023-04-01T00:24:40;5.93;;;1.80;;
4375;SDS011;2202;50.866;12.750;2023-04-01T00:27:07;5.60;;;1.73;;
4375;SDS011;2202;50.866;12.750;2023-04-01T00:29:34;5.87;;;2.37;;
4375;SDS011;2202;50.866;12.750;2023-04-01T00:32:01;4.10;;;1.70;;
4375;SDS011;2202;50.866;12.750;2023-04-01T00:34:29;4.77;;;1.77;;
4375;SDS011;2202;50.866;12.750;2023-04-01T00:36:56;5.03;;;2.37;;
4375;SDS011;2202;50.866;12.750;2023-04-01T00:39:23;3.83;;;1.63;;
4375;SDS011;2202;50.866;12.750;2023-04-01T00:41:51;6.90;;;2.00;;
4375;SDS011;2202;50.866;12.750;2023-04-01T00:44:19;4.27;;;1.87;;
4375;SDS011;2202;50.866;12.750;2023-04-01T00:46:47;3.70;;;1.80;;
4375;SDS011;2202;50.866;12.750;2023-04-01T00:49:14;4.93;;;1.83;;
4375;SDS011;2202;50.866;12.750;2023-04-01T00:51:46;4.93;;;1.90;;
4375;SDS011;2202;50.866;12.750;2023-04-01T00:54:16;7.03;;;2.57;;
4375;SDS011;2202;50.866;12.750;2023-04-01T00:56:47;4.13;;;2.30;;
4375;SDS011;2202;50.866;12.750;2023-04-01T00:59:19;8.33;;;1.90;;
4375;SDS011;2202;50.866;12.750;2023-04-01T01:01:49;11.33;;;2.60;;
4375;SDS011;2202;50.866;12.750;2023-04-01T01:04:23;7.63;;;1.80;;
4375;SDS011;2202;50.866;12.750;2023-04-01T01:06:54;6.80;;;2.00;;
4375;SDS011;2202;50.866;12.750;2023-04-01T01:09:29;5.10;;;1.97;;
4375;SDS011;2202;50.866;12.750;2023-04-01T01:12:03;6.50;;;1.90;;
4375;SDS011;2202;50.866;12.750;2023-04-01T01:14:36;4.43;;;2.10;;
4375;SDS011;2202;50.866;12.750;2023-04-01T01:17:17;5.37;;;2.03;;
4375;SDS011;2202;50.866;12.750;2023-04-01T01:22:51;9.20;;;2.50;;
4375;SDS011;2202;50.866;12.750;2023-04-01T01:25:39;7.17;;;2.37;;
4375;SDS011;2202;50.866;12.750;2023-04-01T01:31:02;4.20;;;1.87;;
4375;SDS011;2202;50.866;12.750;2023-04-01T01:33:49;5.53;;;1.90;;
4375;SDS011;2202;50.866;12.750;2023-04-01T01:36:24;7.80;;;2.17;;
4375;SDS011;2202;50.866;12.750;2023-04-01T01:38:55;5.20;;;1.70;;
4375;SDS011;2202;50.866;12.750;2023-04-01T01:41:23;5.80;;;2.03;;
4375;SDS011;2202;50.866;12.750;2023-04-01T01:43:52;5.70;;;2.17;;
4375;SDS011;2202;50.866;12.750;2023-04-01T01:46:22;5.90;;;2.47;;
4375;SDS011;2202;50.866;12.750;2023-04-01T01:48:52;4.80;;;2.10;;
4375;SDS011;2202;50.866;12.750;2023-04-01T01:51:21;9.63;;;2.77;;
4375;SDS011;2202;50.866;12.750;2023-04-01T01:53:50;4.83;;;1.97;;
4375;SDS011;2202;50.866;12.750;2023-04-01T01:56:17;7.97;;;2.80;;
4375;SDS011;2202;50.866;12.750;2023-04-01T01:58:47;4.60;;;2.30;;
4375;SDS011;2202;50.866;12.750;2023-04-01T02:01:17;7.10;;;2.27;;
4375;SDS011;2202;50.866;12.750;2023-04-01T02:03:46;6.57;;;2.50;;
4375;SDS011;2202;50.866;12.750;2023-04-01T02:06:15;3.70;;;2.00;;
4375;SDS011;2202;50.866;12.750;2023-04-01T02:08:45;4.23;;;2.23;;
4375;SDS011;2202;50.866;12.750;2023-04-01T02:11:16;6.00;;;2.47;;
4375;SDS011;2202;50.866;12.750;2023-04-01T02:13:45;4.87;;;2.00;;
4375;SDS011;2202;50.866;12.750;2023-04-01T02:16:18;7.13;;;2.30;;
4375;SDS011;2202;50.866;12.750;2023-04-01T02:18:49;8.30;;;3.03;;
4375;SDS011;2202;50.866;12.750;2023-04-01T02:21:20;7.50;;;2.60;;
4375;SDS011;2202;50.866;12.750;2023-04-01T02:23:51;6.43;;;1.90;;
4375;SDS011;2202;50.866;12.750;2023-04-01T02:26:20;4.60;;;2.17;;
4375;SDS011;2202;50.866;12.750;2023-04-01T02:28:48;7.30;;;2.13;;
4375;SDS011;2202;50.866;12.750;2023-04-01T02:31:16;6.63;;;2.43;;
4375;SDS011;2202;50.866;12.750;2023-04-01T02:33:44;8.07;;;2.50;;
4375;SDS011;2202;50.866;12.750;2023-04-01T02:36:13;3.93;;;2.17;;
4375;SDS011;2202;50.866;12.750;2023-04-01T02:38:41;4.03;;;2.07;;
4375;SDS011;2202;50.866;12.750;2023-04-01T02:41:11;6.40;;;1.80;;
4375;SDS011;2202;50.866;12.750;2023-04-01T02:43:38;8.27;;;2.20;;
4375;SDS011;2202;50.866;12.750;2023-04-01T02:46:05;7.17;;;2.10;;
4375;SDS011;2202;50.866;12.750;2023-04-01T02:48:32;4.83;;;2.10;;
4375;SDS011;2202;50.866;12.750;2023-04-01T02:50:59;4.27;;;1.90;;
4375;SDS011;2202;50.866;12.750;2023-04-01T02:53:26;6.87;;;2.57;;
4375;SDS011;2202;50.866;12.750;2023-04-01T02:55:53;5.20;;;2.20;;
4375;SDS011;2202;50.866;12.750;2023-04-01T02:58:22;5.60;;;2.20;;
4375;SDS011;2202;50.866;12.750;2023-04-01T03:00:49;4.50;;;1.60;;
4375;SDS011;2202;50.866;12.750;2023-04-01T03:03:16;6.43;;;2.50;;
4375;SDS011;2202;50.866;12.750;2023-04-01T03:05:43;6.53;;;2.17;;
4375;SDS011;2202;50.866;12.750;2023-04-01T03:08:10;7.50;;;2.80;;
4375;SDS011;2202;50.866;12.750;2023-04-01T03:10:36;5.10;;;2.00;;
4375;SDS011;2202;50.866;12.750;2023-04-01T03:13:03;5.37;;;2.03;;
4375;SDS011;2202;50.866;12.750;2023-04-01T03:15:32;5.10;;;2.47;;
4375;SDS011;2202;50.866;12.750;2023-04-01T03:17:59;5.13;;;1.90;;
4375;SDS011;2202;50.866;12.750;2023-04-01T03:20:26;5.67;;;2.40;;
4375;SDS011;2202;50.866;12.750;2023-04-01T03:22:53;4.27;;;1.97;;
4375;SDS011;2202;50.866;12.750;2023-04-01T03:25:20;6.10;;;2.17;;
4375;SDS011;2202;50.866;12.750;2023-04-01T03:27:47;5.33;;;2.00;;
4375;SDS011;2202;50.866;12.750;2023-04-01T03:30:13;4.60;;;2.00;;
4375;SDS011;2202;50.866;12.750;2023-04-01T03:32:41;4.40;;;2.00;;
4375;SDS011;2202;50.866;12.750;2023-04-01T03:35:08;7.40;;;2.57;;
4375;SDS011;2202;50.866;12.750;2023-04-01T03:37:36;3.80;;;1.80;;
4375;SDS011;2202;50.866;12.750;2023-04-01T03:40:03;4.47;;;1.87;;
4375;SDS011;2202;50.866;12.750;2023-04-01T03:42:30;7.77;;;2.00;;
4375;SDS011;2202;50.866;12.750;2023-04-01T03:44:57;5.77;;;2.17;;
4375;SDS011;2202;50.866;12.750;2023-04-01T03:47:24;5.83;;;2.07;;
4375;SDS011;2202;50.866;12.750;2023-04-01T03:49:52;4.23;;;1.70;;
4375;SDS011;2202;50.866;12.750;2023-04-01T03:52:19;8.83;;;2.70;;
4375;SDS011;2202;50.866;12.750;2023-04-01T03:54:46;5.77;;;1.80;;
4375;SDS011;2202;50.866;12.750;2023-04-01T03:57:13;4.33;;;1.67;;
4375;SDS011;2202;50.866;12.750;2023-04-01T03:59:40;9.30;;;2.20;;
4375;SDS011;2202;50.866;12.750;2023-04-01T04:02:07;4.70;;;2.13;;
4375;SDS011;2202;50.866;12.750;2023-04-01T04:04:34;4.60;;;2.00;;
4375;SDS011;2202;50.866;12.750;2023-04-01T04:07:02;4.57;;;2.20;;
4375;SDS011;2202;50.866;12.750;2023-04-01T04:09:29;7.70;;;2.50;;
4375;SDS011;2202;50.866;12.750;2023-04-01T04:11:57;5.30;;;1.80;;
4375;SDS011;2202;50.866;12.750;2023-04-01T04:14:24;4.70;;;2.20;;
4375;SDS011;2202;50.866;12.750;2023-04-01T04:16:51;5.20;;;1.93;;
4375;SDS011;2202;50.866;12.750;2023-04-01T04:19:17;8.57;;;2.10;;
4375;SDS011;2202;50.866;12.750;2023-04-01T04:21:44;5.10;;;2.90;;
4375;SDS011;2202;50.866;12.750;2023-04-01T04:24:12;5.33;;;1.93;;
4375;SDS011;2202;50.866;12.750;2023-04-01T04:26:39;5.27;;;1.90;;
4375;SDS011;2202;50.866;12.750;2023-04-01T04:29:06;7.40;;;1.80;;
4375;SDS011;2202;50.866;12.750;2023-04-01T04:31:33;4.40;;;2.30;;
4375;SDS011;2202;50.866;12.750;2023-04-01T04:34:00;4.43;;;2.00;;
4375;SDS011;2202;50.866;12.750;2023-04-01T04:36:27;7.00;;;2.53;;
4375;SDS011;2202;50.866;12.750;2023-04-01T04:38:54;8.60;;;2.10;;
4375;SDS011;2202;50.866;12.750;2023-04-01T04:41:24;5.30;;;2.70;;
4375;SDS011;2202;50.866;12.750;2023-04-01T04:43:51;7.43;;;2.50;;
4375;SDS011;2202;50.866;12.750;2023-04-01T04:46:19;7.23;;;2.17;;
4375;SDS011;2202;50.866;12.750;2023-04-01T04:48:46;5.47;;;1.80;;
4375;SDS011;2202;50.866;12.750;2023-04-01T04:51:14;7.90;;;1.93;;
4375;SDS011;2202;50.866;12.750;2023-04-01T04:53:41;4.67;;;1.80;;
4375;SDS011;2202;50.866;12.750;2023-04-01T04:56:09;7.03;;;2.13;;
4375;SDS011;2202;50.866;12.750;2023-04-01T04:58:37;7.83;;;1.80;;
4375;SDS011;2202;50.866;12.750;2023-04-01T05:01:05;4.87;;;1.97;;
4375;SDS011;2202;50.866;12.750;2023-04-01T05:03:33;5.50;;;1.80;;
4375;SDS011;2202;50.866;12.750;2023-04-01T05:06:00;5.07;;;2.60;;
4375;SDS011;2202;50.866;12.750;2023-04-01T05:08:27;4.63;;;2.37;;
4375;SDS011;2202;50.866;12.750;2023-04-01T05:10:54;3.37;;;1.80;;
4375;SDS011;2202;50.866;12.750;2023-04-01T05:13:21;7.87;;;2.37;;
4375;SDS011;2202;50.866;12.750;2023-04-01T05:15:49;4.97;;;1.97;;
4375;SDS011;2202;50.866;12.750;2023-04-01T05:18:16;10.30;;;2.63;;
4375;SDS011;2202;50.866;12.750;2023-04-01T05:20:46;9.30;;;2.17;;
4375;SDS011;2202;50.866;12.750;2023-04-01T05:23:13;5.60;;;2.10;;
4375;SDS011;2202;50.866;12.750;2023-04-01T05:25:41;5.73;;;1.90;;
4375;SDS011;2202;50.866;12.750;2023-04-01T05:28:07;5.07;;;1.97;;
4375;SDS011;2202;50.866;12.750;2023-04-01T05:30:34;9.10;;;2.53;;
4375;SDS011;2202;50.866;12.750;2023-04-01T05:33:03;5.00;;;2.30;;
4375;SDS011;2202;50.866;12.750;2023-04-01T05:35:29;7.17;;;2.30;;
4375;SDS011;2202;50.866;12.750;2023-04-01T05:37:56;8.30;;;2.60;;
4375;SDS011;2202;50.866;12.750;2023-04-01T05:40:23;4.93;;;2.80;;
4375;SDS011;2202;50.866;12.750;2023-04-01T05:42:50;7.70;;;1.97;;
4375;SDS011;2202;50.866;12.750;2023-04-01T05:45:17;3.20;;;1.80;;
4375;SDS011;2202;50.866;12.750;2023-04-01T05:47:44;4.63;;;1.93;;
4375;SDS011;2202;50.866;12.750;2023-04-01T05:50:12;4.33;;;1.97;;
4375;SDS011;2202;50.866;12.750;2023-04-01T05:52:40;4.50;;;2.10;;
4375;SDS011;2202;50.866;12.750;2023-04-01T05:55:07;4.20;;;1.80;;
4375;SDS011;2202;50.866;12.750;2023-04-01T05:57:34;5.03;;;1.73;;
4375;SDS011;2202;50.866;12.750;2023-04-01T06:00:02;5.00;;;2.10;;
4375;SDS011;2202;50.866;12.750;2023-04-01T06:02:29;5.20;;;2.20;;
4375;SDS011;2202;50.866;12.750;2023-04-01T06:05:00;4.47;;;2.10;;
4375;SDS011;2202;50.866;12.750;2023-04-01T06:07:38;5.50;;;2.47;;
4375;SDS011;2202;50.866;12.750;2023-04-01T06:10:09;6.33;;;2.07;;
4375;SDS011;2202;50.866;12.750;2023-04-01T06:12:45;4.30;;;1.50;;
4375;SDS011;2202;50.866;12.750;2023-04-01T06:15:23;3.50;;;1.80;;
4375;SDS011;2202;50.866;12.750;2023-04-01T06:18:03;3.27;;;1.63;;
4375;SDS011;2202;50.866;12.750;2023-04-01T06:20:53;3.30;;;1.70;;
4375;SDS011;2202;50.866;12.750;2023-04-01T06:23:34;3.77;;;1.90;;
4375;SDS011;2202;50.866;12.750;2023-04-01T06:26:18;3.40;;;1.73;;
4375;SDS011;2202;50.866;12.750;2023-04-01T06:32:01;4.33;;;1.67;;
4375;SDS011;2202;50.866;12.750;2023-04-01T06:34:48;3.00;;;1.87;;
4375;SDS011;2202;50.866;12.750;2023-04-01T06:37:36;3.67;;;1.50;;
4375;SDS011;2202;50.866;12.750;2023-04-01T06:40:31;6.10;;;1.60;;
4375;SDS011;2202;50.866;12.750;2023-04-01T06:43:15;2.87;;;1.73;;
4375;SDS011;2202;50.866;12.750;2023-04-01T06:45:51;5.53;;;1.70;;
4375;SDS011;2202;50.866;12.750;2023-04-01T06:48:30;3.67;;;1.50;;
4375;SDS011;2202;50.866;12.750;2023-04-01T06:51:12;5.23;;;1.73;;
4375;SDS011;2202;50.866;12.750;2023-04-01T06:53:49;3.40;;;2.00;;
4375;SDS011;2202;50.866;12.750;2023-04-01T06:56:22;3.20;;;1.43;;
4375;SDS011;2202;50.866;12.750;2023-04-01T06:58:52;2.50;;;1.63;;
4375;SDS011;2202;50.866;12.750;2023-04-01T07:01:24;4.60;;;3.00;;
4375;SDS011;2202;50.866;12.750;2023-04-01T07:03:56;3.93;;;1.40;;
4375;SDS011;2202;50.866;12.750;2023-04-01T07:06:28;6.87;;;1.60;;
4375;SDS011;2202;50.866;12.750;2023-04-01T07:08:59;6.53;;;2.20;;
4375;SDS011;2202;50.866;12.750;2023-04-01T07:11:32;2.13;;;1.60;;
4375;SDS011;2202;50.866;12.750;2023-04-01T07:14:04;6.23;;;2.90;;
4375;SDS011;2202;50.866;12.750;2023-04-01T07:16:41;9.13;;;2.30;;
4375;SDS011;2202;50.866;12.750;2023-04-01T07:19:15;6.83;;;2.20;;
4375;SDS011;2202;50.866;12.750;2023-04-01T07:21:47;5.17;;;1.67;;
4375;SDS011;2202;50.866;12.750;2023-04-01T07:24:20;8.60;;;1.70;;
4375;SDS011;2202;50.866;12.750;2023-04-01T07:26:53;4.77;;;1.80;;
4375;SDS011;2202;50.866;12.750;2023-04-01T07:29:22;2.93;;;1.90;;
4375;SDS011;2202;50.866;12.750;2023-04-01T07:31:56;4.90;;;1.93;;
4375;SDS011;2202;50.866;12.750;2023-04-01T07:34:36;2.90;;;1.80;;
4375;SDS011;2202;50.866;12.750;2023-04-01T07:37:08;5.43;;;2.03;;
4375;SDS011;2202;50.866;12.750;2023-04-01T07:39:40;7.27;;;1.77;;
4375;SDS011;2202;50.866;12.750;2023-04-01T07:42:19;2.73;;;1.57;;
4375;SDS011;2202;50.866;12.750;2023-04-01T07:44:54;6.03;;;1.53;;
4375;SDS011;2202;50.866;12.750;2023-04-01T07:47:37;5.40;;;1.83;;
4375;SDS011;2202;50.866;12.750;2023-04-01T07:50:13;4.67;;;1.70;;
4375;SDS011;2202;50.866;12.750;2023-04-01T07:52:50;5.73;;;2.10;;
4375;SDS011;2202;50.866;12.750;2023-04-01T07:55:25;3.67;;;2.10;;
4375;SDS011;2202;50.866;12.750;2023-04-01T07:58:00;4.07;;;1.80;;
4375;SDS011;2202;50.866;12.750;2023-04-01T08:00:30;4.43;;;1.90;;
4375;SDS011;2202;50.866;12.750;2023-04-01T08:03:17;1.90;;;1.43;;
4375;SDS011;2202;50.866;12.750;2023-04-01T08:06:00;3.10;;;2.00;;
4375;SDS011;2202;50.866;12.750;2023-04-01T08:08:36;3.60;;;2.07;;
4375;SDS011;2202;50.866;12.750;2023-04-01T08:11:15;4.40;;;1.90;;
4375;SDS011;2202;50.866;12.750;2023-04-01T08:13:56;2.23;;;1.63;;
4375;SDS011;2202;50.866;12.750;2023-04-01T08:16:31;5.77;;;1.87;;
4375;SDS011;2202;50.866;12.750;2023-04-01T08:19:06;7.60;;;2.07;;
4375;SDS011;2202;50.866;12.750;2023-04-01T08:21:42;2.73;;;1.50;;
4375;SDS011;2202;50.866;12.750;2023-04-01T08:24:16;3.80;;;1.73;;
4375;SDS011;2202;50.866;12.750;2023-04-01T08:26:46;7.83;;;2.60;;
4375;SDS011;2202;50.866;12.750;2023-04-01T08:29:18;5.10;;;1.70;;
4375;SDS011;2202;50.866;12.750;2023-04-01T08:31:48;2.63;;;1.50;;
4375;SDS011;2202;50.866;12.750;2023-04-01T08:34:20;3.47;;;1.70;;
4375;SDS011;2202;50.866;12.750;2023-04-01T08:36:50;2.10;;;1.43;;
4375;SDS011;2202;50.866;12.750;2023-04-01T08:39:21;3.70;;;2.23;;
4375;SDS011;2202;50.866;12.750;2023-04-01T08:45:04;2.90;;;1.20;;
4375;SDS011;2202;50.866;12.750;2023-04-01T08:56:55;2.00;;;1.43;;
4375;SDS011;2202;50.866;12.750;2023-04-01T08:59:31;1.87;;;1.50;;
4375;SDS011;2202;50.866;12.750;2023-04-01T09:02:25;3.27;;;1.53;;
4375;SDS011;2202;50.866;12.750;2023-04-01T09:05:31;1.83;;;1.60;;
4375;SDS011;2202;50.866;12.750;2023-04-01T09:11:05;3.10;;;1.90;;
4375;SDS011;2202;50.866;12.750;2023-04-01T09:13:50;2.60;;;2.40;;
4375;SDS011;2202;50.866;12.750;2023-04-01T09:19:35;2.77;;;1.40;;
4375;SDS011;2202;50.866;12.750;2023-04-01T09:25:21;2.70;;;2.50;;
4375;SDS011;2202;50.866;12.750;2023-04-01T09:27:56;3.20;;;2.90;;
4375;SDS011;2202;50.866;12.750;2023-04-01T09:30:34;2.77;;;2.30;;
4375;SDS011;2202;50.866;12.750;2023-04-01T09:36:33;2.70;;;2.00;;
4375;SDS011;2202;50.866;12.750;2023-04-01T09:39:13;1.97;;;1.57;;
4375;SDS011;2202;50.866;12.750;2023-04-01T09:42:06;3.03;;;2.40;;
4375;SDS011;2202;50.866;12.750;2023-04-01T09:44:43;2.60;;;1.70;;
4375;SDS011;2202;50.866;12.750;2023-04-01T09:47:21;3.07;;;1.50;;
4375;SDS011;2202;50.866;12.750;2023-04-01T09:50:14;4.03;;;1.80;;
4375;SDS011;2202;50.866;12.750;2023-04-01T09:53:10;2.43;;;0.93;;
4375;SDS011;2202;50.866;12.750;2023-04-01T09:58:53;1.20;;;0.90;;
4375;SDS011;2202;50.866;12.750;2023-04-01T10:08:06;1.20;;;0.77;;
4375;SDS011;2202;50.866;12.750;2023-04-01T10:11:14;1.40;;;1.10;;
4375;SDS011;2202;50.866;12.750;2023-04-01T10:17:16;1.30;;;0.70;;
4375;SDS011;2202;50.866;12.750;2023-04-01T10:20:09;1.93;;;1.00;;
4375;SDS011;2202;50.866;12.750;2023-04-01T10:22:58;1.57;;;0.93;;
4375;SDS011;2202;50.866;12.750;2023-04-01T10:25:43;4.77;;;1.27;;
4375;SDS011;2202;50.866;12.750;2023-04-01T10:28:45;1.40;;;1.00;;
4375;SDS011;2202;50.866;12.750;2023-04-01T10:31:35;2.00;;;0.93;;
4375;SDS011;2202;50.866;12.750;2023-04-01T10:34:27;1.40;;;1.00;;
4375;SDS011;2202;50.866;12.750;2023-04-01T10:37:13;1.93;;;0.93;;
4375;SDS011;2202;50.866;12.750;2023-04-01T10:45:59;1.53;;;1.00;;
4375;SDS011;2202;50.866;12.750;2023-04-01T10:48:55;1.93;;;1.00;;
4375;SDS011;2202;50.866;12.750;2023-04-01T10:55:06;1.23;;;0.90;;
4375;SDS011;2202;50.866;12.750;2023-04-01T10:58:03;1.30;;;0.83;;
4375;SDS011;2202;50.866;12.750;2023-04-01T11:01:04;1.80;;;1.10;;
4375;SDS011;2202;50.866;12.750;2023-04-01T11:07:13;1.40;;;0.90;;
4375;SDS011;2202;50.866;12.750;2023-04-01T11:10:18;1.30;;;1.00;;
4375;SDS011;2202;50.866;12.750;2023-04-01T11:13:37;1.40;;;1.00;;
4375;SDS011;2202;50.866;12.750;2023-04-01T11:16:44;5.23;;;0.97;;
4375;SDS011;2202;50.866;12.750;2023-04-01T11:19:48;1.80;;;1.40;;
4375;SDS011;2202;50.866;12.750;2023-04-01T11:22:34;1.73;;;1.57;;
4375;SDS011;2202;50.866;12.750;2023-04-01T11:34:04;1.40;;;0.90;;
4375;SDS011;2202;50.866;12.750;2023-04-01T11:36:43;1.40;;;1.00;;
4375;SDS011;2202;50.866;12.750;2023-04-01T11:39:24;1.30;;;0.97;;
4375;SDS011;2202;50.866;12.750;2023-04-01T11:42:01;1.40;;;1.10;;
4375;SDS011;2202;50.866;12.750;2023-04-01T11:44:36;1.47;;;1.10;;
4375;SDS011;2202;50.866;12.750;2023-04-01T11:47:15;1.50;;;1.10;;
4375;SDS011;2202;50.866;12.750;2023-04-01T11:49:59;2.20;;;1.20;;
4375;SDS011;2202;50.866;12.750;2023-04-01T11:55:43;1.40;;;0.90;;
4375;SDS011;2202;50.866;12.750;2023-04-01T12:01:26;1.77;;;0.90;;
4375;SDS011;2202;50.866;12.750;2023-04-01T12:07:13;3.60;;;1.90;;
4375;SDS011;2202;50.866;12.750;2023-04-01T12:09:47;2.47;;;1.00;;
4375;SDS011;2202;50.866;12.750;2023-04-01T12:12:20;2.57;;;2.00;;
4375;SDS011;2202;50.866;12.750;2023-04-01T12:14:55;5.20;;;1.17;;
4375;SDS011;2202;50.866;12.750;2023-04-01T12:17:34;3.30;;;1.50;;
4375;SDS011;2202;50.866;12.750;2023-04-01T12:20:16;2.50;;;1.30;;
4375;SDS011;2202;50.866;12.750;2023-04-01T12:22:55;1.33;;;0.93;;
4375;SDS011;2202;50.866;12.750;2023-04-01T12:25:38;3.10;;;1.83;;
4375;SDS011;2202;50.866;12.750;2023-04-01T12:28:21;1.40;;;1.03;;
4375;SDS011;2202;50.866;12.750;2023-04-01T12:30:58;1.50;;;1.00;;
4375;SDS011;2202;50.866;12.750;2023-04-01T12:33:47;1.40;;;1.00;;
4375;SDS011;2202;50.866;12.750;2023-04-01T12:36:25;2.27;;;1.10;;
4375;SDS011;2202;50.866;12.750;2023-04-01T12:39:11;3.00;;;1.10;;
4375;SDS011;2202;50.866;12.750;2023-04-01T12:41:49;1.90;;;0.90;;
4375;SDS011;2202;50.866;12.750;2023-04-01T12:47:16;2.17;;;1.17;;
4375;SDS011;2202;50.866;12.750;2023-04-01T12:50:10;2.00;;;1.20;;
4375;SDS011;2202;50.866;12.750;2023-04-01T12:52:52;2.70;;;1.40;;
4375;SDS011;2202;50.866;12.750;2023-04-01T12:55:39;2.97;;;1.50;;
4375;SDS011;2202;50.866;12.750;2023-04-01T13:01:19;4.43;;;1.60;;
4375;SDS011;2202;50.866;12.750;2023-04-01T13:04:05;2.47;;;1.30;;
4375;SDS011;2202;50.866;12.750;2023-04-01T13:06:52;2.73;;;1.07;;
4375;SDS011;2202;50.866;12.750;2023-04-01T13:09:30;2.00;;;1.10;;
4375;SDS011;2202;50.866;12.750;2023-04-01T13:12:15;2.87;;;1.43;;
4375;SDS011;2202;50.866;12.750;2023-04-01T13:15:01;2.50;;;1.20;;
4375;SDS011;2202;50.866;12.750;2023-04-01T13:17:39;1.90;;;1.10;;
4375;SDS011;2202;50.866;12.750;2023-04-01T13:20:13;3.57;;;2.23;;
4375;SDS011;2202;50.866;12.750;2023-04-01T13:22:49;2.57;;;1.50;;
4375;SDS011;2202;50.866;12.750;2023-04-01T13:25:28;3.03;;;1.30;;
4375;SDS011;2202;50.866;12.750;2023-04-01T13:28:04;2.70;;;1.30;;
4375;SDS011;2202;50.866;12.750;2023-04-01T13:30:39;1.90;;;0.90;;
4375;SDS011;2202;50.866;12.750;2023-04-01T13:33:13;1.70;;;0.80;;
4375;SDS011;2202;50.866;12.750;2023-04-01T13:35:48;1.60;;;0.90;;
4375;SDS011;2202;50.866;12.750;2023-04-01T13:38:26;5.40;;;3.93;;
4375;SDS011;2202;50.866;12.750;2023-04-01T13:41:09;1.70;;;1.00;;
4375;SDS011;2202;50.866;12.750;2023-04-01T13:43:49;1.90;;;1.00;;
4375;SDS011;2202;50.866;12.750;2023-04-01T13:46:38;1.40;;;0.80;;
4375;SDS011;2202;50.866;12.750;2023-04-01T13:52:16;1.60;;;0.80;;
4375;SDS011;2202;50.866;12.750;2023-04-01T13:55:20;1.77;;;1.07;;
4375;SDS011;2202;50.866;12.750;2023-04-01T13:58:00;3.40;;;1.20;;
4375;SDS011;2202;50.866;12.750;2023-04-01T14:00:56;4.73;;;1.40;;
4375;SDS011;2202;50.866;12.750;2023-04-01T14:03:32;1.50;;;0.90;;
4375;SDS011;2202;50.866;12.750;2023-04-01T14:06:20;2.43;;;1.00;;
4375;SDS011;2202;50.866;12.750;2023-04-01T14:09:02;1.40;;;0.83;;
4375;SDS011;2202;50.866;12.750;2023-04-01T14:11:53;3.00;;;1.00;;
4375;SDS011;2202;50.866;12.750;2023-04-01T14:14:31;2.03;;;1.33;;
4375;SDS011;2202;50.866;12.750;2023-04-01T14:17:12;1.60;;;0.90;;
4375;SDS011;2202;50.866;12.750;2023-04-01T14:20:13;1.93;;;0.93;;
4375;SDS011;2202;50.866;12.750;2023-04-01T14:23:19;1.60;;;0.90;;
4375;SDS011;2202;50.866;12.750;2023-04-01T14:26:16;1.70;;;0.93;;
4375;SDS011;2202;50.866;12.750;2023-04-01T14:28:54;2.53;;;1.00;;
4375;SDS011;2202;50.866;12.750;2023-04-01T14:31:31;1.77;;;1.17;;
4375;SDS011;2202;50.866;12.750;2023-04-01T14:34:11;1.97;;;1.53;;
4375;SDS011;2202;50.866;12.750;2023-04-01T14:36:53;2.80;;;1.13;;
4375;SDS011;2202;50.866;12.750;2023-04-01T14:39:47;2.10;;;1.17;;
4375;SDS011;2202;50.866;12.750;2023-04-01T14:42:44;2.87;;;1.30;;
4375;SDS011;2202;50.866;12.750;2023-04-01T14:45:33;2.40;;;1.67;;
4375;SDS011;2202;50.866;12.750;2023-04-01T14:48:25;2.30;;;1.10;;
4375;SDS011;2202;50.866;12.750;2023-04-01T14:51:03;2.63;;;1.80;;
4375;SDS011;2202;50.866;12.750;2023-04-01T14:53:37;2.77;;;1.47;;
4375;SDS011;2202;50.866;12.750;2023-04-01T14:56:10;2.53;;;1.60;;
4375;SDS011;2202;50.866;12.750;2023-04-01T14:58:42;2.10;;;1.30;;
4375;SDS011;2202;50.866;12.750;2023-04-01T15:01:13;2.50;;;1.50;;
4375;SDS011;2202;50.866;12.750;2023-04-01T15:03:53;3.00;;;1.60;;
4375;SDS011;2202;50.866;12.750;2023-04-01T15:09:21;2.37;;;1.33;;
4375;SDS011;2202;50.866;12.750;2023-04-01T15:11:59;2.00;;;1.30;;
4375;SDS011;2202;50.866;12.750;2023-04-01T15:14:35;2.40;;;1.20;;
4375;SDS011;2202;50.866;12.750;2023-04-01T15:17:16;1.90;;;1.00;;
4375;SDS011;2202;50.866;12.750;2023-04-01T15:20:10;2.00;;;1.17;;
4375;SDS011;2202;50.866;12.750;2023-04-01T15:22:50;2.40;;;1.90;;
4375;SDS011;2202;50.866;12.750;2023-04-01T15:25:34;3.30;;;2.83;;
4375;SDS011;2202;50.866;12.750;2023-04-01T15:28:14;4.53;;;2.03;;
4375;SDS011;2202;50.866;12.750;2023-04-01T15:30:52;1.80;;;1.20;;
4375;SDS011;2202;50.866;12.750;2023-04-01T15:33:32;1.87;;;1.33;;
4375;SDS011;2202;50.866;12.750;2023-04-01T15:36:10;2.30;;;1.53;;
4375;SDS011;2202;50.866;12.750;2023-04-01T15:38:49;2.10;;;1.70;;
4375;SDS011;2202;50.866;12.750;2023-04-01T15:41:20;3.60;;;2.87;;
4375;SDS011;2202;50.866;12.750;2023-04-01T15:43:53;4.00;;;3.60;;
4375;SDS011;2202;50.866;12.750;2023-04-01T15:46:31;3.93;;;2.53;;
4375;SDS011;2202;50.866;12.750;2023-04-01T15:49:13;4.57;;;2.97;;
4375;SDS011;2202;50.866;12.750;2023-04-01T15:51:55;2.60;;;2.40;;
4375;SDS011;2202;50.866;12.750;2023-04-01T15:54:39;2.10;;;1.60;;
4375;SDS011;2202;50.866;12.750;2023-04-01T15:57:24;3.40;;;2.00;;
4375;SDS011;2202;50.866;12.750;2023-04-01T16:02:53;2.20;;;1.40;;
4375;SDS011;2202;50.866;12.750;2023-04-01T16:05:43;1.77;;;1.10;;
4375;SDS011;2202;50.866;12.750;2023-04-01T16:08:38;2.10;;;1.30;;
4375;SDS011;2202;50.866;12.750;2023-04-01T16:11:21;1.50;;;1.20;;
4375;SDS011;2202;50.866;12.750;2023-04-01T16:13:58;1.80;;;1.50;;
4375;SDS011;2202;50.866;12.750;2023-04-01T16:16:38;1.77;;;1.33;;
4375;SDS011;2202;50.866;12.750;2023-04-01T16:22:19;2.00;;;1.80;;
4375;SDS011;2202;50.866;12.750;2023-04-01T16:24:51;6.03;;;1.00;;
4375;SDS011;2202;50.866;12.750;2023-04-01T16:27:29;2.37;;;0.90;;
4375;SDS011;2202;50.866;12.750;2023-04-01T16:30:03;1.60;;;1.00;;
4375;SDS011;2202;50.866;12.750;2023-04-01T16:32:50;2.23;;;1.23;;
4375;SDS011;2202;50.866;12.750;2023-04-01T16:35:23;1.60;;;1.10;;
4375;SDS011;2202;50.866;12.750;2023-04-01T16:37:59;2.07;;;1.13;;
4375;SDS011;2202;50.866;12.750;2023-04-01T16:40:36;1.40;;;1.00;;
4375;SDS011;2202;50.866;12.750;2023-04-01T16:43:15;1.40;;;0.90;;
4375;SDS011;2202;50.866;12.750;2023-04-01T16:45:51;1.70;;;1.20;;
4375;SDS011;2202;50.866;12.750;2023-04-01T16:48:25;1.57;;;1.17;;
4375;SDS011;2202;50.866;12.750;2023-04-01T16:51:00;1.73;;;1.20;;
4375;SDS011;2202;50.866;12.750;2023-04-01T16:53:32;2.03;;;1.60;;
4375;SDS011;2202;50.866;12.750;2023-04-01T16:56:08;2.40;;;1.83;;
4375;SDS011;2202;50.866;12.750;2023-04-01T16:58:41;3.73;;;2.57;;
4375;SDS011;2202;50.866;12.750;2023-04-01T17:01:16;6.30;;;4.90;;
4375;SDS011;2202;50.866;12.750;2023-04-01T17:03:49;3.47;;;2.27;;
4375;SDS011;2202;50.866;12.750;2023-04-01T17:06:21;2.30;;;1.90;;
4375;SDS011;2202;50.866;12.750;2023-04-01T17:09:03;2.10;;;1.50;;
4375;SDS011;2202;50.866;12.750;2023-04-01T17:11:48;2.67;;;2.03;;
4375;SDS011;2202;50.866;12.750;2023-04-01T17:14:23;2.40;;;1.40;;
4375;SDS011;2202;50.866;12.750;2023-04-01T17:17:05;2.80;;;1.80;;
4375;SDS011;2202;50.866;12.750;2023-04-01T17:20:01;3.80;;;1.83;;
4375;SDS011;2202;50.866;12.750;2023-04-01T17:22:42;2.20;;;1.60;;
4375;SDS011;2202;50.866;12.750;2023-04-01T17:25:21;3.33;;;1.80;;
4375;SDS011;2202;50.866;12.750;2023-04-01T17:27:59;2.70;;;1.80;;